Select your language:
100 km durch den Süden des Ruhrgebiets   Online Marketing Agentur sucht Gipfelstürmer   Andorra Ultra Trail  
  AK:   Land:   Ø Geschw.:   AK-Wertung:   
Datum: 25.02.2017 Send Link
Veranstaltung: 4th Antelope Canyon 55 Km (USA) Mehr Details zum Lauf.
Strecke: 55km Landschaftslauf/Trail Ewige Bestenliste dieser Veranstaltung.
Finisher: 227 (117 M, 110 W) Mehrfach-Finisher.
Bestenlisten-tauglich: Nein
Ergebnisliste von: Link (Quelle zum Zeitpunkt der Erfassung.)
Erfassung durch: Jörgen Zimmer     02.03.2017 22:05
 
227 Suchergebnisse
Gesamt- Rang Leistung Nachname, Vorname Verein Nat. Jg. M/W Rang M/W AK AK Rang Ø Geschw. km/h alters- korrigierte Leistung
1 4:04:00 h   Martin, Tim *Page, AZ   USA  1975 M 1 M40  1 13.525 3:55:40 h
2 5:13:50 h   Johnson, Marques *Page, AZ   USA  1979 M 2 M35  1 10.515 5:10:08 h
3 5:31:00 h   Moore, Tracy *El Cajon, CA   USA  1961 M 3 M55  1 9.970 4:43:44 h
4 5:35:00 h   Dewitt, Jeff *Bellingham, WA   USA  1967 M 4 M45  1 9.851 5:02:49 h
5 5:37:00 h   Rivers, Andrew *Helena, MT   USA  1985 M 5 M23  1 9.792 5:37:00 h
6 5:44:00 h   Lemoine, Derek *Tucson, AZ   USA  1982 M 6 M23  2 9.593 5:43:05 h
7 5:45:00 h   Warfel, Steve *Steamboat Springs, CO   USA  1977 M 7 M35  2 9.565 5:37:33 h
8 5:48:00 h   Lehnberg, Dan *Redondo Beach, CA   USA  1960 M 8 M55  2 9.483 4:55:38 h
9 5:49:50 h   Zeus, Andreas *Pfreimd   DEN  1990 M 9 M23  3 9.433 5:49:50 h
10 5:50:00 h   Swenson, Laura *Tucson, AZ   USA  1973 W 1 W40  1 9.429 5:32:07 h
11 5:51:00 h   Dysert, David *Detroit, MI   USA  1966 M 10 M50  1 9.402 5:14:32 h
12 5:52:00 h   Parks, Casey *Encinitas, CA   USA  1983 M 11 M23  4 9.375 5:51:37 h
13 5:53:00 h   Commins, Daniel *San Diego, CA   USA  1984 M 12 M23  5 9.348 5:52:56 h
14 5:54:00 h   Tamoush, Mike *San Diego, CA   USA  1979 M 13 M35  3 9.322 5:49:50 h
15 5:55:00 h   Kolok, Joseph *Mount Royal, NJ   USA  1972 M 14 M40  2 9.296 5:34:42 h
16 5:56:00 h   Dugger, Benedict *Phoenix, AZ   USA  1970 M 15 M45  2 9.270 5:30:08 h
17 5:57:00 h   Shartel, Angela *San Diego, CA   USA  1974 W 2 W40  2 9.244 5:41:29 h
18 5:58:00 h   Dimino, Tracy *Ramona, CA   USA  1971 W 3 W45  1 9.218 5:33:36 h
19 6:12:00 h   Hauger, Alex *Albuquerque, NM   USA  1988 M 16 M23  6 8.871 6:12:00 h
20 6:13:00 h   Kyle, Jason *Sahuarita, AZ   USA  1978 M 17 M35  4 8.847 6:06:56 h
21 6:14:00 h   Grandlic, Chris *San Diego, CA   USA  1979 M 18 M35  5 8.824 6:09:36 h
22 6:15:00 h   Bottiglio, Paul *Charlotte, NC   USA  1972 M 19 M40  3 8.800 5:53:33 h
23 6:16:00 h   Jolly, Lauren *Salt Lake City, UT   USA  1981 W 4 W35  1 8.777 6:13:14 h
24 6:17:00 h   Maxfeldt, Matt *Ramona, CA   USA  1983 M 20 M23  7 8.753 6:16:36 h
25 6:18:00 h   Davis, Troy *Saint George, UT   USA  1972 M 21 M40  4 8.730 5:56:23 h
26 6:19:00 h   Bradley, Maria *Saint George, UT   USA  1981 W 5 W35  2 8.707 6:16:12 h
27 6:20:00 h   Nez, Ricky *Albuquerque, NM   USA  1980 M 22 M35  6 8.684 6:16:58 h
28 6:21:00 h   Grimm, Paul *Postcard, AL   USA  1968 M 23 M45  3 8.661 5:47:22 h
29 6:22:00 h   Howton, James *Clinton, UT   USA  1974 M 24 M40  5 8.639 6:06:07 h
30 6:23:00 h   Rathmell, Lon *Colorado Springs, CO   USA  1968 M 25 M45  4 8.616 5:49:11 h
31 6:24:00 h   Pyrce, Kathleen *Willow Springs, IL   USA  1984 W 6 W23  1 8.594 6:23:35 h
32 6:25:00 h   Vankerkhove, Cori *Fresno, CA   USA  1992 W 7 W23  2 8.571 6:25:00 h
33 6:26:00 h   Collier, Eric *Gilroy, CA   USA  1980 M 26 M35  7 8.549 6:22:55 h
34 6:27:00 h   Naone, Ryan *Fremont, CA   USA  1973 M 27 M40  6 8.527 6:07:53 h
35 6:44:41 h   Holzhauer, Tom *Washington, UT   USA  1961 M 28 M55  3 8.155 5:46:54 h
36 6:46:13 h   Harrelson, Greg *Myrtle Beach, SC   USA  1970 M 29 M45  5 8.124 6:16:42 h
37 6:51:47 h   Fetzer, Dan *Slc, UT   USA  1982 M 30 M23  8 8.014 6:50:41 h
38 6:52:01 h   Smith, Ann *Holladay, UT   USA  1976 W 8 W40  3 8.009 6:39:37 h
39 6:52:36 h   Esteve de Pradel, Florent D. *Bethesda, MD   USA  1978 M 31 M35  8 7.998 6:45:53 h
40 6:53:12 h   Russell, Caroline *Austin, TX   USA  1974 W 9 W40  4 7.986 6:35:14 h
41 6:55:42 h   Piety, Michael *Tucson, AZ   USA  1985 M 32 M23  9 7.938 6:55:42 h
42 6:56:12 h   Ortiz, Taylor *San Francisco, CA   USA  1992 W 10 W23  3 7.929 6:56:12 h
43 6:59:51 h   Neimeister, Karl *Phoenix, AZ   USA  1989 M 33 M23  10 7.860 6:59:51 h
44 6:59:53 h   Mullins, Krystin *Phoenix, AZ   USA  1988 W 11 W23  4 7.859 6:59:53 h
45 7:00:53 h   Cartaya, Erin *Temecula, CA   USA  1984 W 12 W23  5 7.841 7:00:26 h
46 7:05:10 h   Mugleston, Paul *St George, UT   USA  1976 M 34 M40  7 7.762 6:53:29 h
47 7:07:34 h   Durst, Brian *Washington, UT   USA  1976 M 35 M40  8 7.718 6:55:49 h
48 7:12:40 h   Baccon, Michael *La Ravoire   FRA  1974 M 36 M40  9 7.627 6:54:41 h
49 7:14:46 h   Weller, Clyde *Thornton, CO   USA  1963 M 37 M50  2 7.590 6:19:28 h
50 7:14:57 h   Yazzie, James *Mesa, AZ   USA  1969 M 38 M45  6 7.587 6:39:57 h
51 7:15:10 h   Gray, Andy *Elizabethtown, KY   USA  1981 M 39 M35  9 7.583 7:13:00 h
52 7:17:11 h   Bolen, Timothy *Tempe, AZ   USA  1966 M 40 M50  3 7.548 6:31:46 h
53 7:17:34 h   Arter, Julie *Tucson, AZ   USA  1961 W 13 W55  1 7.542 6:00:50 h
54 7:18:03 h   Martin, Jeff *San Diego, CA   USA  1966 M 41 M50  4 7.533 6:32:33 h
55 7:18:08 h   Dell, Brittany *St. George, UT   USA  1977 W 14 W35  3 7.532 7:07:30 h
56 7:18:34 h   Whitehead, Misty *Washington, UT   USA  1983 W 15 W23  6 7.525 7:17:26 h
57 7:18:36 h   Cather, Candice *Saint George, UT   USA  1974 W 16 W40  5 7.524 6:59:32 h
58 7:21:22 h   Riggio, Susan *Basking Ridge, NJ   USA  1962 W 17 W50  1 7.477 6:08:49 h
59 7:22:06 h   Crosson, Courtney *Tucson, AZ   USA  1982 W 18 W23  7 7.464 7:20:02 h
60 7:22:09 h   Goldszmidt, Freddy *Miami, FL   USA  1965 M 42 M50  5 7.464 6:32:49 h
61 7:22:36 h   Henderson, Paul *Newmarket, NH   USA  1976 M 43 M40  10 7.456 7:10:26 h
62 7:28:44 h   Zehnder, Brian *Salt Lake City, UT   USA  1963 M 44 M50  6 7.354 6:31:40 h
63 7:30:03 h   Lopez, Elizabeth *Anchorage, AK   USA  1966 W 19 W50  2 7.333 6:35:52 h
64 7:30:43 h   Benally, Joan *Kayenta, AZ   USA  1976 W 20 W40  6 7.322 7:17:10 h
65 7:31:51 h   Bergstrom, Josh *Hudson, WI   USA  1978 M 45 M35  10 7.303 7:24:30 h
66 7:31:57 h   Wilcox, Serena *Williston, VT   USA  1979 W 21 W35  4 7.302 7:25:22 h
67 7:36:05 h   Reimers, Carina *Shaker Heights, OH   USA  1968 W 22 W45  2 7.236 6:51:13 h
68 7:37:17 h   Uong, Ben *Culver City, CA   USA  1977 M 46 M35  11 7.217 7:27:25 h
69 7:38:49 h   Smith Jr., Joseph *Las Vegas, NV   USA  1972 M 47 M40  11 7.192 7:12:35 h
70 7:40:46 h   Giacopuzzi, Ian *Cedar Glen, CA   USA  1991 M 48 M23  11 7.162 7:40:46 h
71 7:40:54 h   Dewitt, Parker *Bellingham, WA   USA  2000 M 49 MU23  1 7.160 7:31:30 h
72 7:44:01 h   Snoodyk, Kate *Renton, WA   RSA  1981 W 23 W35  5 7.112 7:39:04 h
73 7:47:37 h   Skippon, David *San Diego, CA   USA  1967 M 50 M45  7 7.057 7:02:41 h
74 7:48:40 h   Vincent, Christina *Oakland, CA   USA  1977 W 24 W35  6 7.041 7:37:17 h
75 7:49:40 h   Peskind, Emma *Fort Collins, CO   USA  1975 W 25 W40  7 7.026 7:32:32 h
76 7:52:19 h   Meekers, Dominique *New Orleans, LA   USA  1963 M 51 M50  7 6.987 6:52:15 h
77 7:54:02 h   Goodman, Victor *Safford, AZ   USA  1980 M 52 M35  12 6.962 7:50:15 h
78 7:57:07 h   Chandran, Anil *Milpitas, CA   USA  1972 M 53 M40  12 6.917 7:29:50 h
79 7:57:24 h   Chang, Jack *Hacienda Heights, CA   USA  1960 M 54 M55  4 6.912 6:45:34 h
80 7:58:01 h   Watkins, Matthew *San Tan Valley, AZ   USA  1979 M 55 M35  13 6.904 7:52:23 h
81 7:59:02 h   Liu, Ed *San Francisco, CA   USA  1970 M 56 M45  8 6.889 7:24:13 h
82 8:02:58 h   Ramsdell, Kelly *Chandler, AZ   USA  1971 W 26 W45  3 6.833 7:30:02 h
83 8:03:54 h   Newell, Josh *San Jose, CA   USA  1986 M 57 M23  12 6.820 8:03:54 h
84 8:04:04 h   Chan, Stanton *Foster City, CA   USA  1985 M 58 M23  13 6.817 8:04:04 h
85 8:04:59 h   Vankerkhove, Dennis *Phoenix, AZ   USA  1960 M 59 M55  5 6.804 6:52:00 h
86 8:05:23 h   John, Kansas *Sandy, UT   USA  1979 M 60 M35  14 6.799 7:59:40 h
87 8:05:25 h   John, Myra *Sandy, UT   USA  1981 W 27 W35  7 6.798 8:01:50 h
88 8:07:40 h   Gabriel, Chris *Eugene, OR   USA  1981 M 61 M35  15 6.767 8:05:14 h
89 8:11:20 h   Beck, Sonja *Mission Viejo, CA   USA  1970 W 28 W45  4 6.716 7:33:10 h
90 8:11:26 h   Beck, Shane *Mission Viejo, CA   USA  1971 M 62 M45  9 6.715 7:39:30 h
91 8:13:31 h   Librizzi, Salvatore (Sam) *Whitefish Bay, WI   USA  1974 M 63 M40  13 6.687 7:53:00 h
92 8:13:33 h   Librizzi, Julie *Whitefish Bay, WI   USA  1976 W 29 W40  8 6.686 7:58:42 h
93 8:13:40 h   Costa, Maili *Corte Madera, CA   USA  1978 W 30 W35  8 6.685 8:04:12 h
94 8:14:49 h   Pickard, Renee *Wilkesboro, NC   USA  1959 W 31 W55  2 6.669 6:37:09 h
95 8:15:24 h   Light, Brittany *Heber City, UT   USA  1978 W 32 W35  9 6.661 8:05:54 h
96 8:15:31 h   Light, Ben *Heber City, UT   USA  1978 M 64 M35  16 6.660 8:07:27 h
97 8:15:40 h   Berry, Mark *Las Cruces, NM   USA  1963 M 65 M50  8 6.658 7:12:38 h
98 8:20:19 h   Adamova, Eva *Memphis, TN   USA  1988 W 33 W23  8 6.596 8:20:19 h
99 8:25:36 h   Kim, Yun *Garden Grove, CA   USA  1953 M 66 M60  1 6.527 6:41:58 h
100 8:25:41 h   Nasafotie, Nolen *Page, AZ   USA  1999 M 67 MU23  2 6.526 8:21:27 h
101 8:26:37 h   Bosco, Michelle *Wethersfield, CT   USA  1968 W 34 W45  5 6.514 7:36:46 h
102 8:26:39 h   Pacileo, Ken *Burlington, CT   USA  1962 M 68 M50  9 6.513 7:18:16 h
103 8:27:49 h   Corrigan, Kate *Salt Lake City, UT   USA  1981 W 35 W35  10 6.498 8:24:04 h
104 8:28:32 h   James, Eltasha *Chinle, AZ   USA  1989 W 36 W23  9 6.489 8:28:32 h
105 8:28:43 h   Kenney, Heather *San Diego, CA   USA  1976 W 37 W40  9 6.487 8:13:25 h
106 8:28:45 h   Stash, Herbert *Moab, UT   USA  1977 M 69 M35  17 6.486 8:17:46 h
107 8:33:29 h   Johnston, Judy *Saratoga, CA   USA  1984 W 38 W23  10 6.427 8:32:56 h
108 8:33:34 h   Singh, Hart *Dublin, CA   USA  1974 M 70 M40  14 6.426 8:12:13 h
109 8:33:56 h   Utsugi, Hidenori *South San Francisco, CA   USA  1967 M 71 M45  10 6.421 7:44:33 h
110 8:34:49 h   Cyphert, Laura *Imperial Beach, CA   USA  1968 W 39 W45  6 6.410 7:44:10 h
111 8:34:52 h   Shaw, Michael *Escondido, CA   USA  1966 M 72 M50  10 6.409 7:41:23 h
112 8:36:15 h   Atkinson, Mark *Cary, NC   USA  1965 M 73 M50  11 6.392 7:38:39 h
113 8:36:48 h   Aker, Clyde The Glide *Yreka, CA   USA  1952 M 74 M60  2 6.385 6:46:50 h
114 8:38:29 h   Green, Kaycee *Reno, NV   USA  1981 W 40 W35  11 6.365 8:34:39 h
115 8:38:32 h   Edmonson, Michelle *Reno, NV   USA  1983 W 41 W23  11 6.364 8:37:12 h
116 8:41:19 h   Gorman, Devon *Chinle, AZ   USA  1993 W 42 W23  12 6.330 8:41:19 h
117 8:46:09 h   Tabacinic, Manuel *Aventura, FL   USA  1977 M 75 M35  18 6.272 8:34:48 h
118 8:46:13 h   Bigio, David *Miami, FL   USA  1964 M 76 M50  12 6.271 7:43:24 h
119 8:46:27 h   Lerena, Mario Adrian *Taubaté   BRA  1974 M 77 M40  15 6.268 8:24:33 h
120 8:46:30 h   Zyman, Zol *North Miami Beach, FL   USA  1983 W 43 W23  13 6.268 8:45:08 h
121 8:46:34 h   Vogelsang, Sarah *Mesa, AZ   USA  1972 W 44 W40  10 6.267 8:15:18 h
122 8:46:42 h   Beecroft, Rachel *Gilbert, AZ   USA  1976 W 45 W40  11 6.265 8:30:51 h
123 8:47:01 h   Dewar, Mark *Houston, TX   USA  1986 M 78 M23  14 6.262 8:47:01 h
124 8:47:10 h   Szabo, Michael *Houston, TX   USA  1986 M 79 M23  15 6.260 8:47:10 h
125 8:49:17 h   Goutham Sotala, Vemana *Madison, WI   USA  1986 M 80 M23  16 6.235 8:49:17 h
126 8:50:36 h   Tang, Angela *Norfolk, VA   USA  1979 W 46 W35  12 6.219 8:42:52 h
127 8:52:48 h   Wildman, Jordan *Durango, CO   USA  1979 W 47 W35  13 6.194 8:45:02 h
128 8:53:44 h   Phillips, Rich *San Diego, CA   USA  1968 M 81 M45  11 6.183 8:06:37 h
129 8:56:36 h   Duong, Marcia *Santa Clara, CA   USA  1977 W 48 W35  14 6.150 8:43:34 h
130 8:56:52 h   Hamberlin, Deborah *Tempe, AZ   USA  1968 W 49 W45  7 6.147 8:04:03 h
131 8:57:40 h   Grasse, Maya *Long Beach, CA   USA  1978 W 50 W35  15 6.138 8:47:21 h
132 9:01:46 h   Young, Nick *Denver, CO   USA  1990 M 82 M23  17 6.091 9:01:46 h
133 9:04:13 h   Toscano, Marilyn *Modesto, CA   USA  1966 W 51 W50  3 6.064 7:58:42 h
134 9:05:08 h   Nez, Jonathan *Shonto, AZ   USA  1975 M 83 M40  16 6.054 8:46:30 h
135 9:05:10 h   Riggenbach, Tom *Tees Nos Pos, AZ   USA  1965 M 84 M50  13 6.053 8:04:20 h
136 9:07:40 h   Mohilla, Melissa *San Diego, CA   USA  1980 W 52 W35  16 6.026 9:01:49 h
137 9:07:42 h   Geddes, Jennifer *San Diego, CA   USA  1983 W 53 W23  14 6.025 9:06:17 h
138 9:08:44 h   Wilkins, Barb *Vancouver, BC   CAN  1971 W 54 W45  8 6.014 8:31:19 h
139 9:10:01 h   Hauser, Andi *Wilkesboro, NC   USA  1980 W 55 W35  17 6.000 9:04:08 h
140 9:12:24 h   Choi, Hong *Tustin, CA   USA  1957 M 85 M55  6 5.974 7:36:21 h
141 9:12:32 h   Kwon, Tae *Irvine, CA   USA  1961 M 86 M55  7 5.972 7:53:38 h
142 9:12:38 h   Chung, Anthony *Fullerton, CA   USA  1956 M 87 M60  3 5.971 7:32:14 h
143 9:13:01 h   Chung, Hihwan *Irvine, CA   USA  1970 M 88 M45  12 5.967 8:32:49 h
144 9:13:17 h   Kim, Jong *Fullerton, CA   USA  1949 M 89 M65  1 5.964 7:02:40 h
145 9:15:30 h   Francisco, Dustin *Phoenix, AZ   USA  1985 M 90 M23  18 5.941 9:15:30 h
146 9:16:01 h   Kopec, Doug *Carrboro, NC   USA  1958 M 91 M55  8 5.935 7:43:40 h
147 9:16:04 h   Warner, Ellen *Riverton, UT   USA  1970 W 56 W45  9 5.935 8:32:52 h
148 9:17:54 h   Tunberg, Karl *Tempe, AZ   USA  1961 M 92 M55  9 5.915 7:58:14 h
149 9:18:41 h   Barth, Lin *San Diego, CA   USA  1976 W 57 W40  12 5.907 9:01:53 h
150 9:19:00 h   Fields, Christina *OH   USA  1986 W 58 W23  15 5.903 9:19:00 h
150 9:22:15 h   Campbell, Barbara *Carrboro, NC   USA  1958 W 59 W55  3 5.869 7:25:05 h
151 9:22:17 h   Fiorito, Agustin *Chapel Hill, NC   USA  1972 M 93 M40  17 5.869 8:50:08 h
152 9:22:48 h   Case, Fred *Woodland Hills, CA   USA  1956 M 94 M60  4 5.864 7:40:33 h
153 9:25:08 h   Andersen, Jill *Reno, NV   USA  1977 W 60 W35  18 5.839 9:11:25 h
154 9:25:12 h   Marinsik, Stephen *San Jose, CA   USA  1996 M 95 MU23  3 5.839 9:25:12 h
155 9:28:41 h   Henderson, Ryan *Kirkland, WA   USA  1987 M 96 M23  19 5.803 9:28:41 h
156 9:29:22 h   Smith, Douglas *Holladay, UT   USA  1972 M 97 M40  18 5.796 8:56:48 h
157 9:29:24 h   Scott, Imogen *Sunnyvale, CA   USA  1971 W 61 W45  10 5.796 8:50:35 h
158 9:30:53 h   Pete, Tamara *Phoenix, AZ   USA  1982 W 62 W23  16 5.781 9:28:13 h
159 9:31:52 h   Harris, Cathy *Encinitas, CA   USA  1958 W 63 W55  4 5.771 7:32:42 h
160 9:31:57 h   Letts, Larry *Carlsbad, CA   USA  1954 M 98 M60  5 5.770 7:39:10 h
161 9:32:17 h   Dahl, Rachel *Phoenix, AZ   USA  1973 W 64 W40  13 5.766 9:03:03 h
162 9:33:16 h   Robinson, Lee *Aliso Viejo, CA   USA  1973 M 99 M40  19 5.756 9:04:57 h
163 9:33:18 h   Robinson, Lori *Aliso Viejo, CA   USA  1975 W 65 W40  14 5.756 9:12:23 h
164 9:34:27 h   Campbell, Michael *Rancho Palos Verdes, CA   USA  1954 M 100 M60  6 5.745 7:41:11 h
165 9:34:29 h   Newsom, Claudia *Rancho Palos Verdes, CA   USA  1950 W 66 W65  1 5.744 6:44:13 h
166 9:35:03 h   Greene, Thomas *San Diego, CA   USA  1965 M 101 M50  14 5.739 8:30:53 h
167 9:36:12 h   Marinsik, Daniel Steven *San Jose, CA   USA  1958 M 102 M55  10 5.727 8:00:30 h
168 9:36:58 h   Swab, Kenneth *Bethesda, MD   USA  1951 M 103 M65  2 5.720 7:29:42 h
169 9:37:03 h   Crum, Sara *Scottsdale, AZ   USA  1970 W 67 W45  11 5.719 8:52:13 h
170 9:38:01 h   Bae, Won *Brea, CA   USA  1953 M 104 M60  7 5.709 7:39:32 h
171 9:38:06 h   Hauser, Carla *North Wilkesboro, NC   USA  1966 W 68 W50  4 5.708 8:28:30 h
172 9:38:12 h   Archibald, Ellen *Wilkesboro, NC   USA  1964 W 69 W50  5 5.707 8:15:52 h
173 9:38:23 h   Simms, Debbie *San Jose, CA   USA  1965 W 70 W50  6 5.706 8:22:24 h
174 9:38:25 h   Newell, Meghan *San Jose, CA   USA  1986 W 71 W23  17 5.705 9:38:25 h
175 9:38:39 h   Bailey, Amanda *Phoenix, AZ   USA  1982 W 72 W23  18 5.703 9:35:56 h
176 9:40:41 h   Kim, Peter *Fullerton, CA   USA  1967 M 105 M45  13 5.683 8:44:53 h
177 9:40:57 h   Fourzon, Lisa *Ukiah, CA   USA  1961 W 73 W55  5 5.680 7:59:04 h
178 9:41:43 h   Thompson, Delicia *Marietta, GA   USA  1972 W 74 W40  15 5.673 9:07:10 h
179 9:42:23 h   Heaton, Rachel *San Mateo, CA   USA  1985 W 75 W23  19 5.666 9:42:17 h
180 9:42:43 h   Harman, Bryan *Peoria, AZ   USA  1982 M 106 M23  20 5.663 9:41:09 h
181 9:42:45 h   Harman, Jen *Peoria, AZ   USA  1981 W 76 W35  19 5.663 9:38:27 h
182 9:42:52 h   Hoang, Bao *Scottsdale, AZ   USA  1980 M 107 M35  19 5.662 9:38:13 h
183 9:44:27 h   Ficke, Roberta *Cockeysville, MD   USA  1961 W 77 W55  6 5.646 8:01:57 h
184 9:44:33 h   Estrada, Yeni *Valencia, CA   USA  1980 W 78 W35  20 5.645 9:38:18 h
185 9:47:17 h   Curley, Ivana *Tonalea, AZ   USA  1976 W 79 W40  16 5.619 9:29:37 h
186 9:47:51 h   Tait, Brenda *W Jordan, UT   USA  1966 W 80 W50  7 5.614 8:37:05 h
187 9:51:05 h   Boukhelifa, Malika *Chapel Hill, NC   USA  1968 W 81 W45  12 5.583 8:52:56 h
188 9:51:11 h   Long, Anne *Chapel Hill, NC   USA  1960 W 82 W55  7 5.582 8:01:00 h
189 9:51:16 h   Smith, Sandy *Lexington, SC   USA  1961 W 83 W55  8 5.581 8:07:34 h
190 9:51:19 h   McCormick, Renee *Columbia, SC   USA  1964 W 84 W50  8 5.581 8:27:07 h
191 9:51:24 h   Long, Robert *Chapel Hill, NC   USA  1952 M 108 M60  8 5.580 7:45:34 h
192 9:51:28 h   Vincent, Vince *Kanab, UT   USA  1957 M 109 M55  11 5.579 8:08:37 h
193 9:51:59 h   Purcell, Gay *Independence, MO   USA  1972 W 85 W40  17 5.574 9:16:50 h
194 9:52:05 h   Romero, Melissa *Independence, MO   USA  1980 W 86 W35  21 5.574 9:45:45 h
195 9:53:27 h   Casey, Christy *Fremont, CA   USA  1964 W 87 W50  9 5.561 8:28:57 h
196 9:55:17 h   Perez, Jazmin *Fremont, CA   USA  1973 W 88 W40  18 5.544 9:24:52 h
197 9:59:43 h   Psenicnik, Trina *San Diego, CA   USA  1973 W 89 W40  19 5.503 9:29:05 h
198 9:59:45 h   Psenicnik, Zoran *San Diego, CA   USA  1968 M 110 M45  14 5.502 9:06:48 h
199 10:04:44 h   Scott, Sheena *Chandler, AZ   USA  1983 W 90 W23  20 5.457 10:03:10 h
200 10:05:01 h   Marquez, Dennis *Brooksville, FL   USA  1983 M 111 M23  21 5.454 10:04:22 h
201 10:05:04 h   Magana, Rocio *Tampa, FL   USA  1987 W 91 W23  21 5.454 10:05:04 h
202 10:05:44 h   Lopez, Lisa *Fremont, CA   USA  1973 W 92 W40  20 5.448 9:34:47 h
203 10:05:47 h   Robeck, Lori *Fremont, CA   USA  1965 W 93 W50  10 5.447 8:46:12 h
204 10:12:22 h   Reiter, Sandy *Mission Viejo, CA   USA  1960 W 94 W55  9 5.389 8:18:14 h
205 10:12:25 h   Rottschy, Britta *Henderson, NV   USA  1963 W 95 W50  11 5.388 8:38:29 h
206 10:14:41 h   Martin, Robert *Portland, OR   USA  1977 M 112 M35  20 5.369 10:01:25 h
207 10:15:08 h   Reyes, Igor *Miami, FL   USA  1968 M 113 M45  15 5.365 9:20:50 h
208 10:16:29 h   Williamson, Jennifer *Fountain Valley, CA   USA  1971 W 96 W45  13 5.353 9:34:27 h
209 10:18:10 h   Grover, Christopher *Monroeville, PA   USA  1983 M 114 M23  22 5.338 10:17:30 h
210 10:22:25 h   Gates, Amber *Deer Lodge, MT   USA  1981 W 97 W35  22 5.302 10:17:49 h
211 10:22:28 h   Conklin, Lisa *Wichita, KS   USA  1980 W 98 W35  23 5.301 10:15:49 h
212 10:22:53 h   Okinaka, George *Henderson, NV   USA  1972 M 115 M40  20 5.298 9:47:16 h
213 10:27:03 h   Guijarro, Jessica *Glendale, AZ   USA  1972 W 99 W40  21 5.263 9:49:49 h
214 10:27:04 h   Herman, Abby *Litchfield Park, AZ   USA  1973 W 100 W40  22 5.263 9:55:02 h
215 10:30:36 h   Christensen, Beth *Las Vegas, NV   USA  1963 W 101 W50  12 5.233 8:53:52 h
216 10:31:45 h   Scheetz, Craig *Mohnton, PA   USA  1953 M 116 M60  9 5.224 8:22:15 h
217 10:34:29 h   Pheps, Gail *Camp Verde, AZ   USA  1968 W 102 W45  14 5.201 9:32:04 h
218 10:34:34 h   Ohman, Valerie *Camp Verde, AZ   USA  1968 W 103 W45  15 5.200 9:32:08 h
219 10:37:05 h   McGowan, Morgan *Las Vegas, NV   USA  1971 W 104 W45  16 5.180 9:53:39 h
220 10:37:34 h   Ojeda, Pam *Las Vegas, NV   USA  1969 W 105 W45  17 5.176 9:41:36 h
221 10:37:35 h   Grimes, Rhonda *Las Vegas, NV   USA  1974 W 106 W40  23 5.176 10:09:51 h
222 10:39:10 h   Hurley, Maggie *Bel Air, MD   USA  1965 W 107 W50  13 5.163 9:15:11 h
223 10:40:08 h   Ripley, Thomas *Sammamish, WA   USA  1949 M 117 M65  3 5.155 8:09:00 h
224 10:41:11 h   Leonard, Darlene *Pinecrest, FL   USA  1976 W 108 W40  24 5.147 10:21:54 h
225 10:42:08 h   Tse, Tracy *San Diego, CA   USA  1974 W 109 W40  25 5.139 10:14:13 h
226 10:51:26 h   Banda, Maribel *El Monte, CA   USA  1982 W 110 W23  22 5.066 10:48:23 h